sensor_id;sensor_type;location;lat;lon;timestamp;P1;durP1;ratioP1;P2;durP2;ratioP2
8474;SDS011;4274;52.012;8.448;2023-05-20T00:00:15;43.90;;;3.00;;
8474;SDS011;4274;52.012;8.448;2023-05-20T00:02:41;45.83;;;2.90;;
8474;SDS011;4274;52.012;8.448;2023-05-20T00:05:06;48.60;;;3.27;;
8474;SDS011;4274;52.012;8.448;2023-05-20T00:07:32;46.43;;;2.73;;
8474;SDS011;4274;52.012;8.448;2023-05-20T00:09:58;43.63;;;2.83;;
8474;SDS011;4274;52.012;8.448;2023-05-20T00:12:23;46.27;;;3.03;;
8474;SDS011;4274;52.012;8.448;2023-05-20T00:14:49;44.10;;;3.30;;
8474;SDS011;4274;52.012;8.448;2023-05-20T00:17:15;46.67;;;3.77;;
8474;SDS011;4274;52.012;8.448;2023-05-20T00:19:40;44.50;;;3.17;;
8474;SDS011;4274;52.012;8.448;2023-05-20T00:22:06;44.67;;;3.57;;
8474;SDS011;4274;52.012;8.448;2023-05-20T00:24:32;44.57;;;3.10;;
8474;SDS011;4274;52.012;8.448;2023-05-20T00:26:57;50.20;;;3.00;;
8474;SDS011;4274;52.012;8.448;2023-05-20T00:29:23;43.37;;;2.73;;
8474;SDS011;4274;52.012;8.448;2023-05-20T00:31:48;48.60;;;3.50;;
8474;SDS011;4274;52.012;8.448;2023-05-20T00:34:14;45.10;;;3.60;;
8474;SDS011;4274;52.012;8.448;2023-05-20T00:36:40;46.30;;;3.00;;
8474;SDS011;4274;52.012;8.448;2023-05-20T00:39:06;44.00;;;2.83;;
8474;SDS011;4274;52.012;8.448;2023-05-20T00:41:32;44.97;;;3.00;;
8474;SDS011;4274;52.012;8.448;2023-05-20T00:43:58;45.00;;;3.70;;
8474;SDS011;4274;52.012;8.448;2023-05-20T00:46:23;43.90;;;3.07;;
8474;SDS011;4274;52.012;8.448;2023-05-20T00:48:52;44.83;;;3.10;;
8474;SDS011;4274;52.012;8.448;2023-05-20T00:51:17;45.53;;;2.70;;
8474;SDS011;4274;52.012;8.448;2023-05-20T00:53:44;43.70;;;2.77;;
8474;SDS011;4274;52.012;8.448;2023-05-20T00:56:10;44.80;;;3.10;;
8474;SDS011;4274;52.012;8.448;2023-05-20T00:58:36;46.30;;;3.17;;
8474;SDS011;4274;52.012;8.448;2023-05-20T01:01:02;44.40;;;2.90;;
8474;SDS011;4274;52.012;8.448;2023-05-20T01:03:28;44.87;;;3.50;;
8474;SDS011;4274;52.012;8.448;2023-05-20T01:05:54;45.00;;;3.47;;
8474;SDS011;4274;52.012;8.448;2023-05-20T01:08:20;48.90;;;2.93;;
8474;SDS011;4274;52.012;8.448;2023-05-20T01:10:48;44.60;;;3.20;;
8474;SDS011;4274;52.012;8.448;2023-05-20T01:13:21;45.37;;;3.20;;
8474;SDS011;4274;52.012;8.448;2023-05-20T01:15:50;54.00;;;3.70;;
8474;SDS011;4274;52.012;8.448;2023-05-20T01:18:17;44.43;;;3.27;;
8474;SDS011;4274;52.012;8.448;2023-05-20T01:20:48;45.10;;;3.97;;
8474;SDS011;4274;52.012;8.448;2023-05-20T01:23:15;47.70;;;3.23;;
8474;SDS011;4274;52.012;8.448;2023-05-20T01:25:41;44.40;;;3.07;;
8474;SDS011;4274;52.012;8.448;2023-05-20T01:28:06;47.77;;;3.70;;
8474;SDS011;4274;52.012;8.448;2023-05-20T01:30:34;44.97;;;3.13;;
8474;SDS011;4274;52.012;8.448;2023-05-20T01:33:10;46.27;;;2.73;;
8474;SDS011;4274;52.012;8.448;2023-05-20T01:35:37;47.60;;;3.10;;
8474;SDS011;4274;52.012;8.448;2023-05-20T01:38:05;43.93;;;2.90;;
8474;SDS011;4274;52.012;8.448;2023-05-20T01:40:31;43.40;;;2.60;;
8474;SDS011;4274;52.012;8.448;2023-05-20T01:42:58;46.90;;;3.00;;
8474;SDS011;4274;52.012;8.448;2023-05-20T01:45:26;46.27;;;3.47;;
8474;SDS011;4274;52.012;8.448;2023-05-20T01:47:52;44.10;;;3.03;;
8474;SDS011;4274;52.012;8.448;2023-05-20T01:50:18;44.80;;;3.20;;
8474;SDS011;4274;52.012;8.448;2023-05-20T01:52:43;43.90;;;3.03;;
8474;SDS011;4274;52.012;8.448;2023-05-20T01:55:09;44.10;;;3.30;;
8474;SDS011;4274;52.012;8.448;2023-05-20T01:57:35;46.00;;;3.30;;
8474;SDS011;4274;52.012;8.448;2023-05-20T02:00:00;44.10;;;2.90;;
8474;SDS011;4274;52.012;8.448;2023-05-20T02:02:26;43.70;;;3.10;;
8474;SDS011;4274;52.012;8.448;2023-05-20T02:04:53;50.13;;;3.17;;
8474;SDS011;4274;52.012;8.448;2023-05-20T02:07:19;48.30;;;3.67;;
8474;SDS011;4274;52.012;8.448;2023-05-20T02:09:45;45.30;;;3.57;;
8474;SDS011;4274;52.012;8.448;2023-05-20T02:12:11;46.90;;;3.57;;
8474;SDS011;4274;52.012;8.448;2023-05-20T02:14:44;45.57;;;4.37;;
8474;SDS011;4274;52.012;8.448;2023-05-20T02:17:11;45.20;;;3.37;;
8474;SDS011;4274;52.012;8.448;2023-05-20T02:19:40;46.47;;;3.70;;
8474;SDS011;4274;52.012;8.448;2023-05-20T02:22:06;45.47;;;3.60;;
8474;SDS011;4274;52.012;8.448;2023-05-20T02:24:31;48.93;;;3.43;;
8474;SDS011;4274;52.012;8.448;2023-05-20T02:26:57;44.47;;;3.40;;
8474;SDS011;4274;52.012;8.448;2023-05-20T02:29:23;49.17;;;3.73;;
8474;SDS011;4274;52.012;8.448;2023-05-20T02:31:49;44.83;;;3.37;;
8474;SDS011;4274;52.012;8.448;2023-05-20T02:34:19;45.43;;;3.27;;
8474;SDS011;4274;52.012;8.448;2023-05-20T02:36:45;46.20;;;3.50;;
8474;SDS011;4274;52.012;8.448;2023-05-20T02:39:11;44.37;;;3.70;;
8474;SDS011;4274;52.012;8.448;2023-05-20T02:41:36;45.37;;;3.50;;
8474;SDS011;4274;52.012;8.448;2023-05-20T02:44:02;43.97;;;3.13;;
8474;SDS011;4274;52.012;8.448;2023-05-20T02:46:28;45.50;;;3.40;;
8474;SDS011;4274;52.012;8.448;2023-05-20T02:48:53;44.80;;;3.50;;
8474;SDS011;4274;52.012;8.448;2023-05-20T02:51:19;43.50;;;3.27;;
8474;SDS011;4274;52.012;8.448;2023-05-20T02:53:45;47.90;;;3.37;;
8474;SDS011;4274;52.012;8.448;2023-05-20T02:56:11;46.10;;;3.17;;
8474;SDS011;4274;52.012;8.448;2023-05-20T02:58:37;44.90;;;3.53;;
8474;SDS011;4274;52.012;8.448;2023-05-20T03:01:03;47.00;;;3.80;;
8474;SDS011;4274;52.012;8.448;2023-05-20T03:03:29;50.57;;;3.50;;
8474;SDS011;4274;52.012;8.448;2023-05-20T03:05:55;44.90;;;3.33;;
8474;SDS011;4274;52.012;8.448;2023-05-20T03:08:21;45.80;;;3.37;;
8474;SDS011;4274;52.012;8.448;2023-05-20T03:10:47;44.40;;;3.47;;
8474;SDS011;4274;52.012;8.448;2023-05-20T03:13:13;47.17;;;3.30;;
8474;SDS011;4274;52.012;8.448;2023-05-20T03:15:39;45.77;;;3.80;;
8474;SDS011;4274;52.012;8.448;2023-05-20T03:18:06;45.10;;;3.73;;
8474;SDS011;4274;52.012;8.448;2023-05-20T03:20:34;44.10;;;3.23;;
8474;SDS011;4274;52.012;8.448;2023-05-20T03:23:04;43.50;;;3.47;;
8474;SDS011;4274;52.012;8.448;2023-05-20T03:25:30;44.00;;;3.40;;
8474;SDS011;4274;52.012;8.448;2023-05-20T03:27:56;50.37;;;4.00;;
8474;SDS011;4274;52.012;8.448;2023-05-20T03:30:27;48.50;;;3.30;;
8474;SDS011;4274;52.012;8.448;2023-05-20T03:32:53;44.70;;;3.00;;
8474;SDS011;4274;52.012;8.448;2023-05-20T03:35:21;45.07;;;3.60;;
8474;SDS011;4274;52.012;8.448;2023-05-20T03:37:47;45.60;;;3.77;;
8474;SDS011;4274;52.012;8.448;2023-05-20T03:40:12;44.07;;;3.80;;
8474;SDS011;4274;52.012;8.448;2023-05-20T03:42:38;44.87;;;3.40;;
8474;SDS011;4274;52.012;8.448;2023-05-20T03:45:04;44.63;;;3.63;;
8474;SDS011;4274;52.012;8.448;2023-05-20T03:47:31;48.27;;;3.40;;
8474;SDS011;4274;52.012;8.448;2023-05-20T03:49:56;45.60;;;3.70;;
8474;SDS011;4274;52.012;8.448;2023-05-20T03:52:22;44.80;;;3.33;;
8474;SDS011;4274;52.012;8.448;2023-05-20T03:54:47;47.07;;;3.93;;
8474;SDS011;4274;52.012;8.448;2023-05-20T03:57:13;47.87;;;3.83;;
8474;SDS011;4274;52.012;8.448;2023-05-20T03:59:39;45.07;;;3.80;;
8474;SDS011;4274;52.012;8.448;2023-05-20T04:02:04;47.13;;;3.90;;
8474;SDS011;4274;52.012;8.448;2023-05-20T04:04:30;46.40;;;3.87;;
8474;SDS011;4274;52.012;8.448;2023-05-20T04:06:56;45.77;;;4.00;;
8474;SDS011;4274;52.012;8.448;2023-05-20T04:09:24;45.20;;;4.10;;
8474;SDS011;4274;52.012;8.448;2023-05-20T04:11:50;44.27;;;3.70;;
8474;SDS011;4274;52.012;8.448;2023-05-20T04:14:16;48.07;;;4.20;;
8474;SDS011;4274;52.012;8.448;2023-05-20T04:16:42;46.30;;;4.17;;
8474;SDS011;4274;52.012;8.448;2023-05-20T04:19:08;50.20;;;4.20;;
8474;SDS011;4274;52.012;8.448;2023-05-20T04:21:34;45.77;;;4.30;;
8474;SDS011;4274;52.012;8.448;2023-05-20T04:24:00;44.87;;;4.23;;
8474;SDS011;4274;52.012;8.448;2023-05-20T04:26:26;45.60;;;3.87;;
8474;SDS011;4274;52.012;8.448;2023-05-20T04:28:52;46.50;;;4.13;;
8474;SDS011;4274;52.012;8.448;2023-05-20T04:31:19;45.20;;;3.27;;
8474;SDS011;4274;52.012;8.448;2023-05-20T04:33:50;45.10;;;3.77;;
8474;SDS011;4274;52.012;8.448;2023-05-20T04:36:16;44.97;;;4.10;;
8474;SDS011;4274;52.012;8.448;2023-05-20T04:38:42;47.77;;;4.00;;
8474;SDS011;4274;52.012;8.448;2023-05-20T04:41:08;45.33;;;4.10;;
8474;SDS011;4274;52.012;8.448;2023-05-20T04:43:34;44.10;;;3.77;;
8474;SDS011;4274;52.012;8.448;2023-05-20T04:46:02;48.10;;;4.57;;
8474;SDS011;4274;52.012;8.448;2023-05-20T04:48:30;46.63;;;4.33;;
8474;SDS011;4274;52.012;8.448;2023-05-20T04:50:56;47.87;;;4.30;;
8474;SDS011;4274;52.012;8.448;2023-05-20T04:53:22;44.50;;;3.90;;
8474;SDS011;4274;52.012;8.448;2023-05-20T04:55:47;44.43;;;3.80;;
8474;SDS011;4274;52.012;8.448;2023-05-20T04:58:20;47.23;;;4.70;;
8474;SDS011;4274;52.012;8.448;2023-05-20T05:00:48;44.60;;;4.50;;
8474;SDS011;4274;52.012;8.448;2023-05-20T05:03:14;44.53;;;3.73;;
8474;SDS011;4274;52.012;8.448;2023-05-20T05:05:40;44.87;;;4.10;;
8474;SDS011;4274;52.012;8.448;2023-05-20T05:08:06;54.30;;;4.00;;
8474;SDS011;4274;52.012;8.448;2023-05-20T05:10:33;46.30;;;4.27;;
8474;SDS011;4274;52.012;8.448;2023-05-20T05:12:59;44.13;;;3.70;;
8474;SDS011;4274;52.012;8.448;2023-05-20T05:15:24;46.70;;;4.27;;
8474;SDS011;4274;52.012;8.448;2023-05-20T05:17:50;47.30;;;4.77;;
8474;SDS011;4274;52.012;8.448;2023-05-20T05:20:17;43.80;;;3.57;;
8474;SDS011;4274;52.012;8.448;2023-05-20T05:22:43;43.43;;;3.53;;
8474;SDS011;4274;52.012;8.448;2023-05-20T05:25:09;46.43;;;4.07;;
8474;SDS011;4274;52.012;8.448;2023-05-20T05:27:35;44.80;;;4.17;;
8474;SDS011;4274;52.012;8.448;2023-05-20T05:30:02;45.30;;;3.53;;
8474;SDS011;4274;52.012;8.448;2023-05-20T05:32:28;44.90;;;3.80;;
8474;SDS011;4274;52.012;8.448;2023-05-20T05:34:53;44.90;;;4.03;;
8474;SDS011;4274;52.012;8.448;2023-05-20T05:37:19;45.20;;;4.63;;
8474;SDS011;4274;52.012;8.448;2023-05-20T05:39:45;44.60;;;3.70;;
8474;SDS011;4274;52.012;8.448;2023-05-20T05:42:11;45.10;;;4.40;;
8474;SDS011;4274;52.012;8.448;2023-05-20T05:44:36;44.77;;;3.73;;
8474;SDS011;4274;52.012;8.448;2023-05-20T05:47:02;46.70;;;4.30;;
8474;SDS011;4274;52.012;8.448;2023-05-20T05:49:29;43.97;;;3.60;;
8474;SDS011;4274;52.012;8.448;2023-05-20T05:51:55;44.67;;;4.17;;
8474;SDS011;4274;52.012;8.448;2023-05-20T05:54:21;50.37;;;5.70;;
8474;SDS011;4274;52.012;8.448;2023-05-20T05:56:46;44.73;;;4.00;;
8474;SDS011;4274;52.012;8.448;2023-05-20T05:59:12;44.33;;;3.50;;
8474;SDS011;4274;52.012;8.448;2023-05-20T06:01:40;46.90;;;4.47;;
8474;SDS011;4274;52.012;8.448;2023-05-20T06:04:05;45.80;;;3.97;;
8474;SDS011;4274;52.012;8.448;2023-05-20T06:06:32;45.30;;;4.20;;
8474;SDS011;4274;52.012;8.448;2023-05-20T06:08:58;46.57;;;4.10;;
8474;SDS011;4274;52.012;8.448;2023-05-20T06:11:23;48.40;;;4.00;;
8474;SDS011;4274;52.012;8.448;2023-05-20T06:13:50;45.10;;;3.67;;
8474;SDS011;4274;52.012;8.448;2023-05-20T06:16:16;49.07;;;3.97;;
8474;SDS011;4274;52.012;8.448;2023-05-20T06:18:41;45.33;;;4.10;;
8474;SDS011;4274;52.012;8.448;2023-05-20T06:21:07;47.90;;;4.43;;
8474;SDS011;4274;52.012;8.448;2023-05-20T06:23:33;47.10;;;4.43;;
8474;SDS011;4274;52.012;8.448;2023-05-20T06:25:59;46.23;;;4.23;;
8474;SDS011;4274;52.012;8.448;2023-05-20T06:28:25;46.37;;;3.90;;
8474;SDS011;4274;52.012;8.448;2023-05-20T06:30:53;49.97;;;4.37;;
8474;SDS011;4274;52.012;8.448;2023-05-20T06:33:18;45.07;;;4.40;;
8474;SDS011;4274;52.012;8.448;2023-05-20T06:35:45;48.97;;;4.00;;
8474;SDS011;4274;52.012;8.448;2023-05-20T06:38:11;50.00;;;4.27;;
8474;SDS011;4274;52.012;8.448;2023-05-20T06:40:37;44.83;;;3.97;;
8474;SDS011;4274;52.012;8.448;2023-05-20T06:43:02;45.90;;;4.67;;
8474;SDS011;4274;52.012;8.448;2023-05-20T06:45:28;46.57;;;4.40;;
8474;SDS011;4274;52.012;8.448;2023-05-20T06:47:53;48.60;;;5.10;;
8474;SDS011;4274;52.012;8.448;2023-05-20T06:50:19;52.60;;;5.00;;
8474;SDS011;4274;52.012;8.448;2023-05-20T06:52:45;46.10;;;5.33;;
8474;SDS011;4274;52.012;8.448;2023-05-20T06:55:11;50.33;;;4.90;;
8474;SDS011;4274;52.012;8.448;2023-05-20T06:57:36;52.10;;;4.50;;
8474;SDS011;4274;52.012;8.448;2023-05-20T07:00:03;46.57;;;4.40;;
8474;SDS011;4274;52.012;8.448;2023-05-20T07:02:30;49.30;;;4.10;;
8474;SDS011;4274;52.012;8.448;2023-05-20T07:04:57;45.87;;;4.27;;
8474;SDS011;4274;52.012;8.448;2023-05-20T07:07:23;45.90;;;4.00;;
8474;SDS011;4274;52.012;8.448;2023-05-20T07:09:48;54.10;;;4.50;;
8474;SDS011;4274;52.012;8.448;2023-05-20T07:12:14;46.60;;;4.10;;
8474;SDS011;4274;52.012;8.448;2023-05-20T07:14:39;47.60;;;4.30;;
8474;SDS011;4274;52.012;8.448;2023-05-20T07:17:06;47.70;;;4.23;;
8474;SDS011;4274;52.012;8.448;2023-05-20T07:19:31;47.37;;;4.33;;
8474;SDS011;4274;52.012;8.448;2023-05-20T07:21:57;46.37;;;4.50;;
8474;SDS011;4274;52.012;8.448;2023-05-20T07:24:23;52.27;;;5.17;;
8474;SDS011;4274;52.012;8.448;2023-05-20T07:26:49;47.50;;;5.17;;
8474;SDS011;4274;52.012;8.448;2023-05-20T07:29:15;47.37;;;4.50;;
8474;SDS011;4274;52.012;8.448;2023-05-20T07:31:40;50.67;;;5.17;;
8474;SDS011;4274;52.012;8.448;2023-05-20T07:34:06;47.60;;;4.63;;
8474;SDS011;4274;52.012;8.448;2023-05-20T07:36:31;50.13;;;5.20;;
8474;SDS011;4274;52.012;8.448;2023-05-20T07:38:57;46.40;;;4.73;;
8474;SDS011;4274;52.012;8.448;2023-05-20T07:41:23;47.90;;;4.80;;
8474;SDS011;4274;52.012;8.448;2023-05-20T07:43:48;48.70;;;4.70;;
8474;SDS011;4274;52.012;8.448;2023-05-20T07:46:14;45.87;;;4.33;;
8474;SDS011;4274;52.012;8.448;2023-05-20T07:48:40;49.00;;;5.20;;
8474;SDS011;4274;52.012;8.448;2023-05-20T07:51:06;49.00;;;6.17;;
8474;SDS011;4274;52.012;8.448;2023-05-20T07:53:32;56.10;;;5.10;;
8474;SDS011;4274;52.012;8.448;2023-05-20T07:55:57;46.87;;;4.90;;
8474;SDS011;4274;52.012;8.448;2023-05-20T07:58:23;47.83;;;4.70;;
8474;SDS011;4274;52.012;8.448;2023-05-20T08:00:49;48.87;;;4.87;;
8474;SDS011;4274;52.012;8.448;2023-05-20T08:03:14;47.00;;;5.30;;
8474;SDS011;4274;52.012;8.448;2023-05-20T08:05:41;48.00;;;5.00;;
8474;SDS011;4274;52.012;8.448;2023-05-20T08:08:06;46.70;;;4.90;;
8474;SDS011;4274;52.012;8.448;2023-05-20T08:10:34;48.20;;;4.77;;
8474;SDS011;4274;52.012;8.448;2023-05-20T08:13:00;50.23;;;5.70;;
8474;SDS011;4274;52.012;8.448;2023-05-20T08:15:25;46.00;;;4.33;;
8474;SDS011;4274;52.012;8.448;2023-05-20T08:17:51;46.07;;;4.40;;
8474;SDS011;4274;52.012;8.448;2023-05-20T08:20:17;53.33;;;4.80;;
8474;SDS011;4274;52.012;8.448;2023-05-20T08:22:43;47.70;;;4.80;;
8474;SDS011;4274;52.012;8.448;2023-05-20T08:25:09;46.70;;;4.40;;
8474;SDS011;4274;52.012;8.448;2023-05-20T08:27:35;49.83;;;4.10;;
8474;SDS011;4274;52.012;8.448;2023-05-20T08:30:01;47.73;;;4.17;;
8474;SDS011;4274;52.012;8.448;2023-05-20T08:32:33;45.20;;;3.53;;
8474;SDS011;4274;52.012;8.448;2023-05-20T08:34:59;44.50;;;3.60;;
8474;SDS011;4274;52.012;8.448;2023-05-20T08:37:26;46.73;;;3.33;;
8474;SDS011;4274;52.012;8.448;2023-05-20T08:39:52;44.87;;;3.23;;
8474;SDS011;4274;52.012;8.448;2023-05-20T08:42:22;44.27;;;3.10;;
8474;SDS011;4274;52.012;8.448;2023-05-20T08:44:48;46.97;;;3.30;;
8474;SDS011;4274;52.012;8.448;2023-05-20T08:47:18;46.23;;;3.10;;
8474;SDS011;4274;52.012;8.448;2023-05-20T08:49:45;45.00;;;3.27;;
8474;SDS011;4274;52.012;8.448;2023-05-20T08:52:12;45.90;;;2.93;;
8474;SDS011;4274;52.012;8.448;2023-05-20T08:54:48;46.57;;;3.50;;
8474;SDS011;4274;52.012;8.448;2023-05-20T08:57:14;44.87;;;3.07;;
8474;SDS011;4274;52.012;8.448;2023-05-20T08:59:43;51.53;;;3.00;;
8474;SDS011;4274;52.012;8.448;2023-05-20T09:02:10;45.43;;;3.23;;
8474;SDS011;4274;52.012;8.448;2023-05-20T09:04:36;46.03;;;3.67;;
8474;SDS011;4274;52.012;8.448;2023-05-20T09:07:02;48.33;;;3.00;;
8474;SDS011;4274;52.012;8.448;2023-05-20T09:09:29;45.00;;;3.10;;
8474;SDS011;4274;52.012;8.448;2023-05-20T09:11:55;45.43;;;2.80;;
8474;SDS011;4274;52.012;8.448;2023-05-20T09:14:22;45.33;;;2.90;;
8474;SDS011;4274;52.012;8.448;2023-05-20T09:16:51;45.30;;;2.87;;
8474;SDS011;4274;52.012;8.448;2023-05-20T09:19:16;45.03;;;3.43;;
8474;SDS011;4274;52.012;8.448;2023-05-20T09:21:45;44.40;;;2.90;;
8474;SDS011;4274;52.012;8.448;2023-05-20T09:24:11;45.97;;;3.20;;
8474;SDS011;4274;52.012;8.448;2023-05-20T09:26:37;46.03;;;2.77;;
8474;SDS011;4274;52.012;8.448;2023-05-20T09:29:02;45.57;;;3.47;;
8474;SDS011;4274;52.012;8.448;2023-05-20T09:31:31;49.37;;;2.97;;
8474;SDS011;4274;52.012;8.448;2023-05-20T09:33:58;44.87;;;3.10;;
8474;SDS011;4274;52.012;8.448;2023-05-20T09:36:26;46.53;;;2.77;;
8474;SDS011;4274;52.012;8.448;2023-05-20T09:38:53;44.67;;;2.90;;
8474;SDS011;4274;52.012;8.448;2023-05-20T09:41:23;45.07;;;3.30;;
8474;SDS011;4274;52.012;8.448;2023-05-20T09:43:57;45.70;;;2.90;;
8474;SDS011;4274;52.012;8.448;2023-05-20T09:46:24;46.73;;;3.50;;
8474;SDS011;4274;52.012;8.448;2023-05-20T09:48:51;47.87;;;2.97;;
8474;SDS011;4274;52.012;8.448;2023-05-20T09:51:17;46.20;;;3.40;;
8474;SDS011;4274;52.012;8.448;2023-05-20T09:53:43;49.27;;;3.33;;
8474;SDS011;4274;52.012;8.448;2023-05-20T09:56:08;45.40;;;2.80;;
8474;SDS011;4274;52.012;8.448;2023-05-20T09:58:35;44.90;;;2.83;;
8474;SDS011;4274;52.012;8.448;2023-05-20T10:01:02;49.50;;;3.03;;
8474;SDS011;4274;52.012;8.448;2023-05-20T10:20:06;47.03;;;4.10;;
8474;SDS011;4274;52.012;8.448;2023-05-20T10:22:36;47.37;;;3.43;;
8474;SDS011;4274;52.012;8.448;2023-05-20T10:25:04;46.50;;;3.90;;
8474;SDS011;4274;52.012;8.448;2023-05-20T10:27:44;46.10;;;3.70;;
8474;SDS011;4274;52.012;8.448;2023-05-20T10:30:20;46.50;;;3.83;;
8474;SDS011;4274;52.012;8.448;2023-05-20T10:32:53;47.27;;;3.73;;
8474;SDS011;4274;52.012;8.448;2023-05-20T10:35:22;47.73;;;4.10;;
8474;SDS011;4274;52.012;8.448;2023-05-20T10:37:52;47.23;;;4.10;;
8474;SDS011;4274;52.012;8.448;2023-05-20T10:40:20;46.10;;;3.60;;
8474;SDS011;4274;52.012;8.448;2023-05-20T10:42:46;46.37;;;3.33;;
8474;SDS011;4274;52.012;8.448;2023-05-20T10:45:25;49.73;;;4.40;;
8474;SDS011;4274;52.012;8.448;2023-05-20T10:47:56;45.90;;;3.43;;
8474;SDS011;4274;52.012;8.448;2023-05-20T10:50:35;45.47;;;3.60;;
8474;SDS011;4274;52.012;8.448;2023-05-20T10:53:03;46.80;;;4.30;;
8474;SDS011;4274;52.012;8.448;2023-05-20T10:55:39;46.57;;;4.17;;
8474;SDS011;4274;52.012;8.448;2023-05-20T10:58:11;47.50;;;4.40;;
8474;SDS011;4274;52.012;8.448;2023-05-20T11:00:38;46.03;;;4.20;;
8474;SDS011;4274;52.012;8.448;2023-05-20T11:03:05;46.50;;;4.37;;
8474;SDS011;4274;52.012;8.448;2023-05-20T11:05:31;48.97;;;3.97;;
8474;SDS011;4274;52.012;8.448;2023-05-20T11:08:00;46.60;;;4.70;;
8474;SDS011;4274;52.012;8.448;2023-05-20T11:10:32;46.67;;;3.80;;
8474;SDS011;4274;52.012;8.448;2023-05-20T11:12:59;47.57;;;3.87;;
8474;SDS011;4274;52.012;8.448;2023-05-20T11:15:26;47.00;;;4.20;;
8474;SDS011;4274;52.012;8.448;2023-05-20T11:17:55;49.37;;;4.43;;
8474;SDS011;4274;52.012;8.448;2023-05-20T11:20:23;47.10;;;4.70;;
8474;SDS011;4274;52.012;8.448;2023-05-20T11:22:50;47.13;;;4.33;;
8474;SDS011;4274;52.012;8.448;2023-05-20T11:25:16;46.87;;;4.53;;
8474;SDS011;4274;52.012;8.448;2023-05-20T11:27:42;49.30;;;4.72;;
8474;SDS011;4274;52.012;8.448;2023-05-20T11:30:09;48.57;;;5.10;;
8474;SDS011;4274;52.012;8.448;2023-05-20T11:32:37;48.10;;;5.00;;
8474;SDS011;4274;52.012;8.448;2023-05-20T11:35:02;48.37;;;4.53;;
8474;SDS011;4274;52.012;8.448;2023-05-20T11:37:29;49.20;;;4.50;;
8474;SDS011;4274;52.012;8.448;2023-05-20T11:40:04;46.70;;;4.77;;
8474;SDS011;4274;52.012;8.448;2023-05-20T11:42:34;47.90;;;4.90;;
8474;SDS011;4274;52.012;8.448;2023-05-20T11:45:00;47.93;;;4.47;;
8474;SDS011;4274;52.012;8.448;2023-05-20T11:47:26;46.50;;;4.37;;
8474;SDS011;4274;52.012;8.448;2023-05-20T11:49:52;47.57;;;4.40;;
8474;SDS011;4274;52.012;8.448;2023-05-20T11:52:20;46.77;;;4.23;;
8474;SDS011;4274;52.012;8.448;2023-05-20T11:54:50;47.67;;;4.63;;
8474;SDS011;4274;52.012;8.448;2023-05-20T11:57:18;47.20;;;4.30;;
8474;SDS011;4274;52.012;8.448;2023-05-20T11:59:45;47.50;;;4.80;;
8474;SDS011;4274;52.012;8.448;2023-05-20T12:02:11;50.27;;;5.33;;
8474;SDS011;4274;52.012;8.448;2023-05-20T12:04:36;64.53;;;4.57;;
8474;SDS011;4274;52.012;8.448;2023-05-20T12:07:02;46.07;;;4.30;;
8474;SDS011;4274;52.012;8.448;2023-05-20T12:09:28;51.40;;;4.40;;
8474;SDS011;4274;52.012;8.448;2023-05-20T12:11:53;46.40;;;4.30;;
8474;SDS011;4274;52.012;8.448;2023-05-20T12:14:20;48.97;;;4.70;;
8474;SDS011;4274;52.012;8.448;2023-05-20T12:16:46;46.40;;;4.47;;
8474;SDS011;4274;52.012;8.448;2023-05-20T12:19:11;47.60;;;4.43;;
8474;SDS011;4274;52.012;8.448;2023-05-20T12:21:37;46.47;;;4.13;;
8474;SDS011;4274;52.012;8.448;2023-05-20T12:24:03;45.70;;;4.17;;
8474;SDS011;4274;52.012;8.448;2023-05-20T12:26:30;47.30;;;4.60;;
8474;SDS011;4274;52.012;8.448;2023-05-20T12:28:57;46.87;;;4.30;;
8474;SDS011;4274;52.012;8.448;2023-05-20T12:31:23;47.27;;;4.60;;
8474;SDS011;4274;52.012;8.448;2023-05-20T12:33:49;46.97;;;4.43;;
8474;SDS011;4274;52.012;8.448;2023-05-20T12:36:15;46.37;;;4.20;;
8474;SDS011;4274;52.012;8.448;2023-05-20T12:38:41;45.47;;;3.83;;
8474;SDS011;4274;52.012;8.448;2023-05-20T12:41:07;47.60;;;4.13;;
8474;SDS011;4274;52.012;8.448;2023-05-20T12:43:34;46.57;;;4.00;;
8474;SDS011;4274;52.012;8.448;2023-05-20T12:46:00;46.97;;;4.40;;
8474;SDS011;4274;52.012;8.448;2023-05-20T12:48:26;46.67;;;3.73;;
8474;SDS011;4274;52.012;8.448;2023-05-20T12:50:51;44.73;;;3.73;;
8474;SDS011;4274;52.012;8.448;2023-05-20T12:53:17;48.60;;;3.90;;
8474;SDS011;4274;52.012;8.448;2023-05-20T12:55:42;53.30;;;4.07;;
8474;SDS011;4274;52.012;8.448;2023-05-20T12:58:08;46.20;;;3.80;;
8474;SDS011;4274;52.012;8.448;2023-05-20T13:00:34;46.00;;;3.80;;
8474;SDS011;4274;52.012;8.448;2023-05-20T13:02:59;45.00;;;3.57;;
8474;SDS011;4274;52.012;8.448;2023-05-20T13:05:25;51.47;;;4.57;;
8474;SDS011;4274;52.012;8.448;2023-05-20T13:07:51;45.67;;;4.10;;
8474;SDS011;4274;52.012;8.448;2023-05-20T13:10:16;45.60;;;4.00;;
8474;SDS011;4274;52.012;8.448;2023-05-20T13:12:43;45.13;;;3.43;;
8474;SDS011;4274;52.012;8.448;2023-05-20T13:15:10;45.37;;;3.67;;
8474;SDS011;4274;52.012;8.448;2023-05-20T13:17:37;46.40;;;3.93;;
8474;SDS011;4274;52.012;8.448;2023-05-20T13:20:03;44.83;;;3.57;;
8474;SDS011;4274;52.012;8.448;2023-05-20T13:22:30;50.20;;;3.30;;
8474;SDS011;4274;52.012;8.448;2023-05-20T13:24:56;45.40;;;3.83;;
8474;SDS011;4274;52.012;8.448;2023-05-20T13:27:22;54.10;;;3.80;;
8474;SDS011;4274;52.012;8.448;2023-05-20T13:29:47;46.70;;;4.33;;
8474;SDS011;4274;52.012;8.448;2023-05-20T13:32:13;45.80;;;3.40;;
8474;SDS011;4274;52.012;8.448;2023-05-20T13:34:38;46.73;;;3.80;;
8474;SDS011;4274;52.012;8.448;2023-05-20T13:37:04;45.70;;;4.10;;
8474;SDS011;4274;52.012;8.448;2023-05-20T13:39:30;47.43;;;4.40;;
8474;SDS011;4274;52.012;8.448;2023-05-20T13:41:55;46.83;;;4.00;;
8474;SDS011;4274;52.012;8.448;2023-05-20T13:44:22;51.07;;;4.00;;
8474;SDS011;4274;52.012;8.448;2023-05-20T13:46:47;45.77;;;3.93;;
8474;SDS011;4274;52.012;8.448;2023-05-20T13:49:13;49.23;;;4.23;;
8474;SDS011;4274;52.012;8.448;2023-05-20T13:51:38;47.57;;;4.27;;
8474;SDS011;4274;52.012;8.448;2023-05-20T13:54:04;45.60;;;3.63;;
8474;SDS011;4274;52.012;8.448;2023-05-20T13:56:30;49.23;;;5.10;;
8474;SDS011;4274;52.012;8.448;2023-05-20T13:58:56;47.10;;;3.80;;
8474;SDS011;4274;52.012;8.448;2023-05-20T14:01:22;46.30;;;3.50;;
8474;SDS011;4274;52.012;8.448;2023-05-20T14:03:47;47.60;;;4.30;;
8474;SDS011;4274;52.012;8.448;2023-05-20T14:06:13;45.40;;;4.20;;
8474;SDS011;4274;52.012;8.448;2023-05-20T14:08:42;46.63;;;4.00;;
8474;SDS011;4274;52.012;8.448;2023-05-20T14:11:11;46.33;;;3.63;;
8474;SDS011;4274;52.012;8.448;2023-05-20T14:13:36;46.70;;;3.90;;
8474;SDS011;4274;52.012;8.448;2023-05-20T14:16:02;45.17;;;3.93;;
8474;SDS011;4274;52.012;8.448;2023-05-20T14:18:28;45.50;;;3.70;;
8474;SDS011;4274;52.012;8.448;2023-05-20T14:20:53;47.20;;;3.97;;
8474;SDS011;4274;52.012;8.448;2023-05-20T14:23:20;44.53;;;3.40;;
8474;SDS011;4274;52.012;8.448;2023-05-20T14:25:45;45.80;;;4.20;;
8474;SDS011;4274;52.012;8.448;2023-05-20T14:28:11;45.00;;;3.57;;
8474;SDS011;4274;52.012;8.448;2023-05-20T14:30:37;45.90;;;4.40;;
8474;SDS011;4274;52.012;8.448;2023-05-20T14:33:02;45.40;;;3.80;;
8474;SDS011;4274;52.012;8.448;2023-05-20T14:35:28;45.13;;;3.87;;
8474;SDS011;4274;52.012;8.448;2023-05-20T14:37:53;48.60;;;3.90;;
8474;SDS011;4274;52.012;8.448;2023-05-20T14:40:19;46.77;;;4.10;;
8474;SDS011;4274;52.012;8.448;2023-05-20T14:42:45;45.70;;;3.80;;
8474;SDS011;4274;52.012;8.448;2023-05-20T14:45:10;48.47;;;4.27;;
8474;SDS011;4274;52.012;8.448;2023-05-20T14:47:36;51.70;;;4.05;;
8474;SDS011;4274;52.012;8.448;2023-05-20T14:50:04;46.80;;;4.40;;
8474;SDS011;4274;52.012;8.448;2023-05-20T14:52:30;45.37;;;3.90;;
8474;SDS011;4274;52.012;8.448;2023-05-20T14:54:56;48.30;;;4.53;;
8474;SDS011;4274;52.012;8.448;2023-05-20T14:57:21;48.47;;;4.50;;
8474;SDS011;4274;52.012;8.448;2023-05-20T14:59:47;46.57;;;4.60;;
8474;SDS011;4274;52.012;8.448;2023-05-20T15:02:14;47.47;;;4.77;;
8474;SDS011;4274;52.012;8.448;2023-05-20T15:04:41;47.60;;;4.80;;
8474;SDS011;4274;52.012;8.448;2023-05-20T15:07:08;50.00;;;4.77;;
8474;SDS011;4274;52.012;8.448;2023-05-20T15:09:34;47.97;;;4.40;;
8474;SDS011;4274;52.012;8.448;2023-05-20T15:12:00;47.80;;;4.73;;